Time;durP1;ratioP1;P1;durP2;ratioP2;P2;SDS_P1;SDS_P2;PMS_P1;PMS_P2;Temp;Humidity;BMP_temperature;BMP_pressure;BME280_temperature;BME280_humidity;BME280_pressure;Samples;Min_cycle;Max_cycle;Signal;HPM_P1;HPM_P2
2023/04/24 00:01:52;;;;;;;10.45;9.50;;;9.30;99.90;;;;;;5037762;28;20421;-73
2023/04/24 00:04:18;;;;;;;10.30;9.48;;;9.30;99.90;;;;;;5032580;28;20041;-74
2023/04/24 00:06:43;;;;;;;12.73;11.70;;;9.30;99.90;;;;;;5032150;28;20049;-72
2023/04/24 00:09:09;;;;;;;9.40;8.70;;;9.30;99.90;;;;;;5004439;28;20099;-74
2023/04/24 00:11:36;;;;;;;10.60;9.70;;;9.30;99.90;;;;;;5029836;28;20490;-74
2023/04/24 00:14:02;;;;;;;11.57;10.60;;;9.40;99.90;;;;;;5024557;28;20140;-74
2023/04/24 00:16:27;;;;;;;12.40;11.30;;;9.40;99.90;;;;;;5013208;28;20053;-74
2023/04/24 00:18:53;;;;;;;12.73;11.38;;;9.40;99.90;;;;;;5013143;28;20486;-73
2023/04/24 00:21:19;;;;;;;9.68;8.98;;;9.40;99.90;;;;;;5029912;28;20545;-73
2023/04/24 00:23:44;;;;;;;10.02;9.23;;;9.40;99.90;;;;;;5012858;28;20038;-74
2023/04/24 00:26:10;;;;;;;9.80;9.05;;;9.40;99.90;;;;;;5031558;28;20112;-74
2023/04/24 00:28:36;;;;;;;11.75;10.68;;;9.40;99.90;;;;;;5035014;28;20064;-73
2023/04/24 00:31:01;;;;;;;11.60;10.57;;;9.50;99.90;;;;;;5039296;28;20037;-73
2023/04/24 00:33:27;;;;;;;13.10;11.95;;;9.40;99.90;;;;;;5032165;28;20041;-73
2023/04/24 00:35:53;;;;;;;13.68;12.52;;;9.50;99.90;;;;;;5032706;28;20044;-74
2023/04/24 00:38:18;;;;;;;13.65;12.45;;;9.50;99.90;;;;;;5033760;28;20064;-73
2023/04/24 00:40:44;;;;;;;13.88;12.68;;;9.50;99.90;;;;;;5039206;28;20119;-73
2023/04/24 00:43:10;;;;;;;15.27;13.98;;;9.50;99.90;;;;;;5024078;28;20048;-74
2023/04/24 00:45:36;;;;;;;14.05;12.85;;;9.50;99.90;;;;;;5032245;28;20049;-74
2023/04/24 00:48:02;;;;;;;15.30;13.98;;;9.50;99.90;;;;;;5033344;28;20038;-74
2023/04/24 00:50:29;;;;;;;14.95;13.75;;;9.60;99.90;;;;;;5021571;28;20029;-73
2023/04/24 00:52:54;;;;;;;14.27;13.05;;;9.60;99.90;;;;;;5023620;28;20079;-74
2023/04/24 00:55:20;;;;;;;15.10;13.90;;;9.50;99.90;;;;;;5031587;28;20128;-74
2023/04/24 00:57:47;;;;;;;16.83;15.07;;;9.60;99.90;;;;;;5014574;28;20056;-74
2023/04/24 01:00:14;;;;;;;17.23;15.82;;;9.60;99.90;;;;;;5028840;28;20514;-74
2023/04/24 01:02:43;;;;;;;14.00;12.90;;;9.60;99.90;;;;;;5002008;28;20087;-73
2023/04/24 01:05:09;;;;;;;15.13;13.82;;;9.60;99.90;;;;;;5022733;28;20037;-73
2023/04/24 01:07:35;;;;;;;13.18;12.07;;;9.60;99.90;;;;;;5016841;28;20044;-74
2023/04/24 01:10:01;;;;;;;13.07;11.98;;;9.60;99.90;;;;;;5026656;28;20047;-74
2023/04/24 01:12:27;;;;;;;14.48;13.25;;;9.60;99.90;;;;;;5034487;28;20033;-74
2023/04/24 01:14:54;;;;;;;14.82;13.50;;;9.70;99.90;;;;;;5030671;28;20041;-74
2023/04/24 01:17:20;;;;;;;14.65;13.55;;;9.70;99.90;;;;;;5031335;28;20068;-74
2023/04/24 01:19:46;;;;;;;13.85;12.95;;;9.70;99.90;;;;;;5031415;28;20049;-74
2023/04/24 01:22:16;;;;;;;16.45;15.43;;;9.70;99.90;;;;;;5032626;28;20045;-74
2023/04/24 01:24:42;;;;;;;12.05;11.27;;;9.70;99.90;;;;;;5011490;28;20080;-74
2023/04/24 01:27:09;;;;;;;12.57;11.77;;;9.60;99.90;;;;;;5011692;28;20049;-75
2023/04/24 01:29:35;;;;;;;12.45;11.63;;;9.60;99.90;;;;;;5026076;28;20120;-74
2023/04/24 01:32:01;;;;;;;14.82;13.90;;;9.60;99.90;;;;;;5034145;28;20075;-74
2023/04/24 01:34:27;;;;;;;15.10;14.15;;;9.60;99.90;;;;;;5006501;28;20389;-74
2023/04/24 01:36:53;;;;;;;16.98;15.90;;;9.50;99.90;;;;;;5031290;28;20050;-74
2023/04/24 01:39:20;;;;;;;14.15;13.25;;;9.50;99.90;;;;;;5031401;28;20045;-74
2023/04/24 01:41:46;;;;;;;17.05;15.95;;;9.50;99.90;;;;;;5034666;28;20037;-75
2023/04/24 01:44:11;;;;;;;16.25;15.23;;;9.50;99.90;;;;;;5029508;28;20067;-74
2023/04/24 01:46:37;;;;;;;18.45;17.20;;;9.50;99.90;;;;;;5018071;28;20047;-74
2023/04/24 01:49:03;;;;;;;14.30;13.38;;;9.40;99.90;;;;;;4994959;28;20505;-74
2023/04/24 01:51:29;;;;;;;14.40;13.50;;;9.40;99.90;;;;;;5027271;28;20033;-74
2023/04/24 01:53:55;;;;;;;16.88;15.68;;;9.40;99.90;;;;;;5027711;28;20053;-73
2023/04/24 01:56:22;;;;;;;13.80;12.90;;;9.40;99.90;;;;;;5022839;28;20040;-75
2023/04/24 01:58:50;;;;;;;11.35;10.52;;;9.40;99.90;;;;;;5028888;28;20550;-74
2023/04/24 02:01:20;;;;;;;10.75;9.95;;;9.40;99.90;;;;;;5017724;28;20116;-73
2023/04/24 02:03:45;;;;;;;10.65;9.95;;;9.40;99.90;;;;;;5030566;28;20077;-74
2023/04/24 02:06:11;;;;;;;10.77;9.95;;;9.30;99.90;;;;;;5030768;28;20072;-74
2023/04/24 02:08:36;;;;;;;10.50;9.80;;;9.30;99.90;;;;;;5030366;28;20041;-74
2023/04/24 02:11:02;;;;;;;8.45;7.85;;;9.30;99.90;;;;;;5025950;28;20049;-74
2023/04/24 02:13:28;;;;;;;9.45;8.77;;;9.30;99.90;;;;;;5028015;28;20065;-74
2023/04/24 02:15:53;;;;;;;9.40;8.80;;;9.30;99.90;;;;;;5024240;28;20433;-74
2023/04/24 02:18:19;;;;;;;8.30;7.72;;;9.30;99.90;;;;;;4998170;28;20045;-74
2023/04/24 02:20:45;;;;;;;7.28;6.68;;;9.30;99.90;;;;;;5035722;28;20051;-74
2023/04/24 02:23:11;;;;;;;7.18;6.57;;;9.30;99.90;;;;;;5011407;28;20037;-74
2023/04/24 02:25:36;;;;;;;6.38;5.88;;;9.30;99.90;;;;;;5029475;28;20429;-74
2023/04/24 02:28:02;;;;;;;6.13;5.70;;;9.30;99.90;;;;;;5029624;28;20389;-74
2023/04/24 02:30:28;;;;;;;7.68;7.07;;;9.20;99.90;;;;;;5027558;28;20094;-74
2023/04/24 02:32:54;;;;;;;5.47;5.07;;;9.30;99.90;;;;;;5029201;28;20029;-74
2023/04/24 02:35:19;;;;;;;7.50;6.90;;;9.20;99.90;;;;;;5013674;28;20038;-74
2023/04/24 02:37:45;;;;;;;6.88;6.18;;;9.20;99.90;;;;;;5030648;28;20060;-74
2023/04/24 02:40:11;;;;;;;7.32;6.72;;;9.20;99.90;;;;;;5032128;28;20041;-74
2023/04/24 02:42:36;;;;;;;7.57;7.07;;;9.20;99.90;;;;;;5017171;28;20119;-74
2023/04/24 02:45:02;;;;;;;7.47;6.88;;;9.20;99.90;;;;;;4994163;28;20042;-74
2023/04/24 02:47:28;;;;;;;7.68;7.07;;;9.20;99.90;;;;;;5006854;28;20041;-74
2023/04/24 02:49:53;;;;;;;8.02;7.43;;;9.20;99.90;;;;;;5008564;28;20052;-74
2023/04/24 02:52:19;;;;;;;10.35;9.55;;;9.20;99.90;;;;;;5031066;28;20045;-74
2023/04/24 02:54:44;;;;;;;10.63;9.85;;;9.10;99.90;;;;;;5031245;28;20125;-74
2023/04/24 02:57:10;;;;;;;11.25;10.35;;;9.10;99.90;;;;;;5029335;28;20045;-74
2023/04/24 02:59:35;;;;;;;11.65;10.85;;;9.10;99.90;;;;;;5021766;28;20053;-74
2023/04/24 03:02:01;;;;;;;9.52;8.73;;;9.10;99.90;;;;;;5013493;28;20093;-74
2023/04/24 03:04:26;;;;;;;9.13;8.43;;;9.10;99.90;;;;;;5013149;28;20051;-74
2023/04/24 03:06:54;;;;;;;10.82;10.00;;;9.10;99.90;;;;;;5029990;28;20034;-74
2023/04/24 03:09:20;;;;;;;9.75;9.00;;;9.10;99.90;;;;;;5029599;28;20045;-74
2023/04/24 03:11:46;;;;;;;8.13;7.53;;;9.10;99.90;;;;;;5019192;28;20493;-74
2023/04/24 03:14:11;;;;;;;9.35;8.65;;;9.20;99.90;;;;;;5027728;28;20037;-74
2023/04/24 03:16:37;;;;;;;8.07;7.50;;;9.10;99.90;;;;;;5010375;28;20128;-74
2023/04/24 03:19:02;;;;;;;8.07;7.40;;;9.10;99.90;;;;;;5000330;28;20454;-74
2023/04/24 03:21:28;;;;;;;6.60;6.10;;;9.10;99.90;;;;;;5038848;28;20060;-74
2023/04/24 03:23:53;;;;;;;5.55;5.15;;;9.10;99.90;;;;;;5033665;28;20429;-74
2023/04/24 03:26:19;;;;;;;5.53;5.03;;;9.10;99.90;;;;;;5035004;28;20051;-74
2023/04/24 03:28:45;;;;;;;4.50;4.20;;;9.10;99.90;;;;;;5010696;28;20030;-74
2023/04/24 03:31:10;;;;;;;4.18;3.78;;;9.10;99.90;;;;;;5019912;28;20516;-74
2023/04/24 03:33:36;;;;;;;3.45;3.15;;;9.10;99.90;;;;;;5016556;28;20103;-74
2023/04/24 03:36:02;;;;;;;4.28;3.88;;;9.10;99.90;;;;;;5033522;28;20069;-74
2023/04/24 03:38:27;;;;;;;3.83;2.80;;;9.00;99.90;;;;;;5033773;28;20375;-74
2023/04/24 03:40:53;;;;;;;2.85;2.60;;;9.00;99.90;;;;;;5021035;28;20088;-74
2023/04/24 03:43:19;;;;;;;2.30;2.10;;;9.00;99.90;;;;;;5015300;28;20044;-74
2023/04/24 03:45:44;;;;;;;1.90;1.80;;;9.00;99.90;;;;;;5027714;28;20115;-75
2023/04/24 03:48:10;;;;;;;1.25;1.17;;;9.00;99.90;;;;;;5013448;28;20482;-74
2023/04/24 03:50:35;;;;;;;1.65;1.25;;;9.00;99.90;;;;;;5026068;28;20045;-74
2023/04/24 03:53:01;;;;;;;1.30;1.10;;;9.00;99.90;;;;;;5025064;28;20087;-74
2023/04/24 03:55:26;;;;;;;1.13;1.13;;;8.90;99.90;;;;;;5013383;28;20056;-74
2023/04/24 03:57:52;;;;;;;3.42;1.20;;;8.90;99.90;;;;;;5029168;28;20428;-74
2023/04/24 04:00:20;;;;;;;2.50;2.10;;;8.80;99.90;;;;;;5017433;28;20103;-74
2023/04/24 04:02:46;;;;;;;2.58;2.30;;;8.80;99.90;;;;;;5010314;28;20121;-74
2023/04/24 04:05:12;;;;;;;3.40;3.10;;;8.80;99.90;;;;;;5013461;28;20116;-74
2023/04/24 04:07:37;;;;;;;4.70;4.30;;;8.70;99.90;;;;;;5007893;28;20071;-74
2023/04/24 04:10:03;;;;;;;4.93;4.50;;;8.70;99.90;;;;;;5031776;28;20061;-74
2023/04/24 04:12:29;;;;;;;6.55;5.88;;;8.70;99.90;;;;;;5033892;28;20507;-74
2023/04/24 04:14:55;;;;;;;7.97;7.38;;;8.80;99.90;;;;;;5016228;28;20044;-74
2023/04/24 04:17:21;;;;;;;7.40;6.80;;;8.80;99.90;;;;;;5032764;28;20045;-74
2023/04/24 04:19:46;;;;;;;9.40;8.60;;;8.80;99.90;;;;;;5033596;28;20044;-74
2023/04/24 04:22:12;;;;;;;7.63;7.03;;;8.80;99.90;;;;;;5031638;28;20033;-74
2023/04/24 04:24:37;;;;;;;9.15;8.35;;;8.80;99.90;;;;;;5019735;28;20042;-74
2023/04/24 04:27:05;;;;;;;8.90;8.10;;;8.80;99.90;;;;;;5012804;28;20046;-74
2023/04/24 04:29:31;;;;;;;8.52;7.78;;;8.80;99.90;;;;;;5018429;28;20497;-74
2023/04/24 04:31:57;;;;;;;9.10;8.20;;;8.70;99.90;;;;;;5019723;28;20033;-74
2023/04/24 04:34:23;;;;;;;7.93;7.22;;;8.70;99.90;;;;;;5028140;28;20038;-74
2023/04/24 04:36:48;;;;;;;6.68;6.13;;;8.70;99.90;;;;;;5031783;28;20401;-74
2023/04/24 04:39:15;;;;;;;7.53;6.70;;;8.70;99.90;;;;;;5013365;28;20037;-74
2023/04/24 04:41:41;;;;;;;7.10;6.40;;;8.70;99.90;;;;;;5038795;28;20429;-74
2023/04/24 04:44:08;;;;;;;7.43;6.72;;;8.70;99.90;;;;;;5031904;28;20038;-74
2023/04/24 04:46:34;;;;;;;6.97;6.30;;;8.70;99.90;;;;;;5031260;28;20529;-74
2023/04/24 04:49:01;;;;;;;7.32;6.63;;;8.70;99.90;;;;;;5031943;28;20047;-73
2023/04/24 04:51:26;;;;;;;7.72;6.35;;;8.70;99.90;;;;;;5039625;28;20030;-73
2023/04/24 04:53:52;;;;;;;9.70;7.07;;;8.70;99.90;;;;;;5031482;28;20068;-73
2023/04/24 04:56:18;;;;;;;10.93;7.50;;;8.70;99.90;;;;;;5034819;28;20402;-73
2023/04/24 04:58:43;;;;;;;16.33;10.93;;;8.80;99.90;;;;;;5026358;28;20049;-73
2023/04/24 05:01:09;;;;;;;23.23;13.70;;;8.80;99.90;;;;;;5049589;28;20117;-73
2023/04/24 05:03:35;;;;;;;27.90;16.17;;;8.90;99.90;;;;;;5043341;28;20044;-74
2023/04/24 05:06:01;;;;;;;28.45;16.95;;;9.00;99.90;;;;;;5031209;28;20145;-73
2023/04/24 05:08:27;;;;;;;39.33;20.55;;;9.10;99.90;;;;;;5027952;28;20060;-73
2023/04/24 05:10:53;;;;;;;38.72;21.95;;;9.30;99.90;;;;;;5025895;28;20080;-73
2023/04/24 05:13:19;;;;;;;41.10;22.83;;;9.30;99.90;;;;;;5045209;28;20103;-73
2023/04/24 05:15:45;;;;;;;33.22;20.38;;;9.30;99.90;;;;;;5014790;28;20033;-72
2023/04/24 05:18:10;;;;;;;39.35;23.10;;;9.40;99.90;;;;;;5014976;28;20502;-74
2023/04/24 05:20:36;;;;;;;49.17;24.58;;;9.30;99.90;;;;;;5028875;28;20410;-72
2023/04/24 05:23:01;;;;;;;38.10;23.25;;;9.40;99.90;;;;;;5030748;28;20041;-73
2023/04/24 05:25:27;;;;;;;41.38;22.10;;;9.40;99.90;;;;;;5031372;28;20037;-73
2023/04/24 05:27:53;;;;;;;39.25;20.88;;;9.40;99.90;;;;;;5031254;28;20047;-72
2023/04/24 05:30:19;;;;;;;32.35;19.77;;;9.40;99.90;;;;;;5031272;28;20042;-73
2023/04/24 05:32:45;;;;;;;37.55;21.90;;;9.40;99.90;;;;;;5030369;28;20049;-72
2023/04/24 05:35:11;;;;;;;48.05;24.50;;;9.30;99.90;;;;;;5031252;28;20456;-72
2023/04/24 05:37:37;;;;;;;47.35;23.85;;;9.30;99.90;;;;;;5031320;28;20037;-72
2023/04/24 05:40:05;;;;;;;48.60;24.60;;;9.30;99.90;;;;;;5013663;28;20042;-72
2023/04/24 05:42:31;;;;;;;46.45;24.67;;;9.40;99.90;;;;;;5029680;28;20482;-72
2023/04/24 05:44:56;;;;;;;54.72;26.23;;;9.40;99.90;;;;;;5023913;28;20096;-73
2023/04/24 05:47:22;;;;;;;44.00;24.88;;;9.40;99.90;;;;;;5034633;28;20486;-73
2023/04/24 05:49:47;;;;;;;46.83;25.60;;;9.40;99.90;;;;;;5029677;28;20409;-73
2023/04/24 05:52:13;;;;;;;55.08;25.70;;;9.40;99.90;;;;;;5030574;28;20474;-73
2023/04/24 05:54:39;;;;;;;49.85;25.48;;;9.40;99.90;;;;;;5030715;28;20044;-73
2023/04/24 05:57:07;;;;;;;56.47;27.48;;;9.40;99.90;;;;;;5030924;28;20482;-73
2023/04/24 05:59:34;;;;;;;71.97;28.63;;;9.40;99.90;;;;;;5048589;28;20420;-75
2023/04/24 06:01:59;;;;;;;50.80;25.90;;;9.40;99.90;;;;;;5050735;28;20052;-75
2023/04/24 06:04:25;;;;;;;48.92;25.15;;;9.40;99.90;;;;;;5045360;28;20045;-72
2023/04/24 06:06:55;;;;;;;69.57;28.65;;;9.40;99.90;;;;;;5032534;28;20134;-72
2023/04/24 06:09:25;;;;;;;56.05;25.25;;;9.40;99.90;;;;;;5030514;28;20074;-73
2023/04/24 06:11:52;;;;;;;47.00;23.95;;;9.40;99.90;;;;;;5030625;28;20494;-73
2023/04/24 06:14:18;;;;;;;46.75;22.38;;;9.40;99.90;;;;;;5038884;28;20497;-73
2023/04/24 06:16:44;;;;;;;34.67;18.80;;;9.40;99.90;;;;;;5029355;28;20041;-72
2023/04/24 06:19:10;;;;;;;30.77;17.70;;;9.40;99.90;;;;;;5028712;28;20307;-73
2023/04/24 06:21:35;;;;;;;35.35;17.00;;;9.30;99.90;;;;;;5029343;28;20088;-73
2023/04/24 06:24:01;;;;;;;33.30;16.65;;;9.30;99.90;;;;;;5030120;28;20045;-73
2023/04/24 06:26:27;;;;;;;30.02;16.70;;;9.30;99.90;;;;;;5030505;28;20144;-73
2023/04/24 06:28:56;;;;;;;31.13;16.63;;;9.30;99.90;;;;;;5028711;28;20038;-73
2023/04/24 06:31:21;;;;;;;53.67;20.10;;;9.30;99.90;;;;;;5044258;28;20038;-72
2023/04/24 06:33:48;;;;;;;33.53;17.73;;;9.30;99.90;;;;;;5024010;28;20044;-73
2023/04/24 06:36:13;;;;;;;17.52;12.00;;;9.30;99.90;;;;;;5010908;28;20442;-72
2023/04/24 06:38:39;;;;;;;21.83;13.35;;;9.30;99.90;;;;;;5010697;28;20084;-73
2023/04/24 06:41:05;;;;;;;21.80;14.40;;;9.30;99.90;;;;;;5010870;28;20443;-73
2023/04/24 06:43:31;;;;;;;19.33;13.10;;;9.30;99.90;;;;;;5010394;28;20049;-73
2023/04/24 06:45:57;;;;;;;26.65;15.65;;;9.30;99.90;;;;;;5042096;28;20321;-72
2023/04/24 06:48:25;;;;;;;34.35;17.42;;;9.20;99.90;;;;;;5029209;28;20052;-73
2023/04/24 06:50:50;;;;;;;30.15;17.77;;;9.20;99.90;;;;;;5030070;28;20048;-73
2023/04/24 06:53:16;;;;;;;36.60;19.40;;;9.30;99.90;;;;;;5011749;28;20479;-73
2023/04/24 06:55:44;;;;;;;33.80;19.48;;;9.20;99.90;;;;;;5013223;28;20037;-73
2023/04/24 06:58:10;;;;;;;30.52;18.92;;;9.30;99.90;;;;;;5014465;28;20225;-73
2023/04/24 07:00:36;;;;;;;20.88;16.05;;;9.30;99.90;;;;;;5014492;28;20511;-73
2023/04/24 07:03:02;;;;;;;22.05;16.35;;;9.20;99.90;;;;;;5032783;28;20065;-73
2023/04/24 07:05:28;;;;;;;25.48;17.90;;;9.20;99.90;;;;;;5022405;28;20041;-73
2023/04/24 07:07:53;;;;;;;33.63;21.08;;;9.10;99.90;;;;;;5014256;28;20120;-73
2023/04/24 07:10:19;;;;;;;23.60;17.70;;;9.10;99.90;;;;;;5029034;28;20103;-73
2023/04/24 07:12:46;;;;;;;33.92;20.73;;;9.20;99.90;;;;;;5019803;28;20121;-73
2023/04/24 07:15:12;;;;;;;36.83;21.58;;;9.20;99.90;;;;;;5019117;28;20100;-73
2023/04/24 07:17:38;;;;;;;24.95;17.98;;;9.20;99.90;;;;;;5032938;28;20042;-73
2023/04/24 07:20:05;;;;;;;35.60;21.27;;;9.20;99.90;;;;;;5025730;28;20046;-73
2023/04/24 07:22:30;;;;;;;26.45;19.23;;;9.20;99.90;;;;;;5013785;28;20176;-73
2023/04/24 07:24:56;;;;;;;34.15;21.75;;;9.20;99.90;;;;;;5016692;28;20038;-73
2023/04/24 07:27:22;;;;;;;40.00;22.77;;;9.20;99.90;;;;;;5034099;28;20084;-73
2023/04/24 07:29:47;;;;;;;29.55;19.65;;;9.20;99.90;;;;;;5027494;28;20052;-73
2023/04/24 07:32:13;;;;;;;32.90;21.60;;;9.20;99.90;;;;;;5015073;28;20049;-73
2023/04/24 07:34:39;;;;;;;34.00;20.45;;;9.20;99.90;;;;;;5013493;28;20574;-73
2023/04/24 07:37:04;;;;;;;43.67;23.92;;;9.20;99.90;;;;;;5014007;28;20045;-73
2023/04/24 07:39:30;;;;;;;27.92;19.40;;;9.20;99.90;;;;;;5022892;28;20042;-73
2023/04/24 07:41:55;;;;;;;19.73;14.60;;;9.20;99.90;;;;;;5027543;28;20073;-73
2023/04/24 07:44:21;;;;;;;27.48;18.25;;;9.20;99.90;;;;;;5030301;28;20037;-73
2023/04/24 07:46:47;;;;;;;37.55;20.30;;;9.20;99.90;;;;;;5013570;28;20045;-73
2023/04/24 07:49:12;;;;;;;19.20;13.00;;;9.20;99.90;;;;;;5013500;28;20038;-73
2023/04/24 07:51:38;;;;;;;16.95;12.98;;;9.20;99.90;;;;;;5022985;28;20029;-73
2023/04/24 07:54:07;;;;;;;12.02;10.57;;;9.20;99.90;;;;;;5033363;28;20077;-73
2023/04/24 07:56:33;;;;;;;15.25;10.90;;;9.20;99.90;;;;;;5021208;28;20038;-73
2023/04/24 07:59:00;;;;;;;14.65;11.10;;;9.20;99.90;;;;;;5013602;28;20050;-73
2023/04/24 08:01:26;;;;;;;26.10;17.48;;;9.10;99.90;;;;;;5013402;28;20049;-73
2023/04/24 08:03:52;;;;;;;31.67;21.15;;;9.20;99.90;;;;;;5012909;28;20490;-73
2023/04/24 08:06:17;;;;;;;33.35;22.80;;;9.20;99.90;;;;;;5040042;28;20446;-73
2023/04/24 08:08:43;;;;;;;30.50;23.48;;;9.10;99.90;;;;;;5032774;28;20133;-73
2023/04/24 08:11:09;;;;;;;35.50;25.95;;;9.10;99.90;;;;;;5032893;28;20128;-73
2023/04/24 08:13:34;;;;;;;43.63;29.08;;;9.00;99.90;;;;;;5033904;28;20033;-73
2023/04/24 08:16:00;;;;;;;45.58;31.40;;;9.00;99.90;;;;;;5033476;28;20383;-73
2023/04/24 08:18:26;;;;;;;57.88;34.35;;;9.00;99.90;;;;;;5032050;28;20354;-74
2023/04/24 08:20:51;;;;;;;48.90;32.75;;;9.00;99.90;;;;;;5032080;28;20084;-73
2023/04/24 08:23:17;;;;;;;46.42;34.03;;;9.00;99.90;;;;;;5030267;28;20091;-73
2023/04/24 08:25:43;;;;;;;94.88;44.45;;;8.90;99.90;;;;;;5029584;28;20049;-73
2023/04/24 08:28:10;;;;;;;54.30;35.58;;;8.90;99.90;;;;;;5012699;28;20042;-73
2023/04/24 08:30:36;;;;;;;39.17;31.80;;;8.90;99.90;;;;;;5030248;28;20517;-73
2023/04/24 08:33:02;;;;;;;48.40;34.72;;;8.90;99.90;;;;;;5016364;28;20042;-73
2023/04/24 08:35:27;;;;;;;52.08;36.22;;;8.80;99.90;;;;;;5029245;28;20038;-73
2023/04/24 08:37:53;;;;;;;62.35;42.10;;;8.80;99.90;;;;;;5012828;28;20061;-73
2023/04/24 08:40:26;;;;;;;51.78;38.60;;;8.70;99.90;;;;;;5029032;28;20502;-73
2023/04/24 08:42:55;;;;;;;54.35;40.15;;;8.70;99.90;;;;;;5016686;28;20053;-73
2023/04/24 08:45:21;;;;;;;55.38;40.22;;;8.60;99.90;;;;;;5029587;28;20080;-73
2023/04/24 08:47:49;;;;;;;37.42;33.28;;;8.60;99.90;;;;;;5028856;28;20038;-73
2023/04/24 08:50:15;;;;;;;35.08;31.23;;;8.50;99.90;;;;;;5013664;28;20096;-73
2023/04/24 08:52:42;;;;;;;56.42;40.00;;;8.40;99.90;;;;;;5013496;28;20318;-73
2023/04/24 08:55:08;;;;;;;41.17;33.78;;;8.40;99.90;;;;;;5016419;28;20080;-73
2023/04/24 08:57:35;;;;;;;41.92;34.88;;;8.40;99.90;;;;;;5031128;28;20108;-73
2023/04/24 09:00:01;;;;;;;40.95;34.67;;;8.40;99.90;;;;;;5024030;28;20050;-73
2023/04/24 09:02:28;;;;;;;42.35;35.30;;;8.40;99.90;;;;;;5011935;28;20050;-73
2023/04/24 09:04:56;;;;;;;44.95;35.63;;;8.40;99.90;;;;;;5012080;28;20494;-73
2023/04/24 09:07:25;;;;;;;56.85;43.28;;;8.40;99.90;;;;;;5011992;28;20560;-73
2023/04/24 09:09:51;;;;;;;42.90;35.75;;;8.50;99.90;;;;;;5023614;28;20080;-73
2023/04/24 09:12:17;;;;;;;49.92;37.40;;;8.60;99.90;;;;;;5021788;28;20069;-73
2023/04/24 09:14:44;;;;;;;38.65;33.63;;;8.70;99.90;;;;;;5011668;28;20516;-73
2023/04/24 09:17:11;;;;;;;35.95;30.17;;;8.80;99.90;;;;;;4994961;28;20092;-73
2023/04/24 09:19:37;;;;;;;41.08;34.22;;;8.90;99.90;;;;;;5011975;28;20509;-73
2023/04/24 09:22:06;;;;;;;34.85;31.17;;;8.90;99.90;;;;;;5011861;28;20048;-73
2023/04/24 09:24:33;;;;;;;38.88;31.75;;;9.00;99.90;;;;;;5028001;28;20044;-73
2023/04/24 09:27:01;;;;;;;32.28;28.73;;;9.00;99.90;;;;;;5023967;28;20475;-73
2023/04/24 09:29:26;;;;;;;33.67;28.15;;;9.00;99.90;;;;;;5028241;28;20406;-73
2023/04/24 09:31:52;;;;;;;36.00;26.30;;;9.10;99.90;;;;;;5027077;28;20044;-73
2023/04/24 09:34:23;;;;;;;29.08;23.75;;;9.20;99.90;;;;;;5028580;28;20033;-73
2023/04/24 09:36:49;;;;;;;26.23;21.70;;;9.20;99.90;;;;;;5011611;28;20072;-73
2023/04/24 09:39:16;;;;;;;22.90;19.33;;;9.30;99.90;;;;;;5011580;28;20050;-73
2023/04/24 09:41:52;;;;;;;20.45;17.23;;;9.40;99.90;;;;;;5025984;28;20034;-73
2023/04/24 09:44:23;;;;;;;21.90;18.30;;;9.40;99.90;;;;;;5013658;28;20041;-73
2023/04/24 09:46:54;;;;;;;29.77;22.55;;;9.40;99.90;;;;;;5030920;28;20033;-73
2023/04/24 09:49:24;;;;;;;16.40;13.18;;;9.50;99.90;;;;;;5012667;28;20041;-73
2023/04/24 09:51:50;;;;;;;20.65;15.25;;;9.50;99.90;;;;;;5011359;28;20042;-73
2023/04/24 09:54:21;;;;;;;16.30;14.35;;;9.40;99.90;;;;;;5014455;28;20042;-73
2023/04/24 09:56:50;;;;;;;23.35;15.70;;;9.40;99.90;;;;;;5024948;28;20138;-73
2023/04/24 09:59:17;;;;;;;18.40;14.27;;;9.40;99.90;;;;;;5029426;28;20037;-73
2023/04/24 10:01:44;;;;;;;17.75;14.27;;;9.30;99.90;;;;;;5030833;28;20029;-73
2023/04/24 10:04:20;;;;;;;21.63;12.10;;;9.30;99.90;;;;;;5030458;28;20046;-73
2023/04/24 10:06:48;;;;;;;18.98;7.97;;;9.20;99.90;;;;;;5029740;28;20051;-73
2023/04/24 10:09:15;;;;;;;13.10;7.50;;;8.90;99.90;;;;;;5030022;28;20038;-73
2023/04/24 10:11:45;;;;;;;12.20;6.55;;;8.80;99.90;;;;;;5017637;28;20042;-73
2023/04/24 10:14:16;;;;;;;14.60;8.05;;;8.60;99.90;;;;;;5010753;28;20084;-73
2023/04/24 10:16:43;;;;;;;15.15;7.43;;;8.50;99.90;;;;;;5010958;28;20490;-73
2023/04/24 10:19:08;;;;;;;14.13;7.50;;;8.40;99.90;;;;;;5011283;28;20458;-73
2023/04/24 10:21:35;;;;;;;16.05;7.70;;;8.30;99.90;;;;;;5028052;28;20041;-73
2023/04/24 10:24:03;;;;;;;12.80;6.53;;;8.30;99.90;;;;;;5024948;28;20053;-73
2023/04/24 10:26:29;;;;;;;12.68;7.03;;;8.40;99.90;;;;;;5022511;28;20425;-73
2023/04/24 10:28:57;;;;;;;14.55;8.07;;;8.40;99.90;;;;;;5030232;28;20116;-73
2023/04/24 10:31:23;;;;;;;16.08;7.85;;;8.40;99.90;;;;;;5030786;28;20502;-73
2023/04/24 10:33:51;;;;;;;12.85;7.82;;;8.50;99.90;;;;;;5029193;28;20112;-73
2023/04/24 10:36:17;;;;;;;13.10;6.30;;;8.60;99.90;;;;;;5028236;28;20501;-74
2023/04/24 10:38:45;;;;;;;17.25;7.93;;;8.70;99.90;;;;;;5029501;28;20071;-73
2023/04/24 10:41:23;;;;;;;17.58;7.63;;;8.80;99.90;;;;;;5012963;28;20056;-74
2023/04/24 10:44:12;;;;;;;16.23;7.22;;;8.80;99.90;;;;;;5010595;28;20133;-74
2023/04/24 10:46:39;;;;;;;16.88;8.18;;;9.00;99.90;;;;;;5010492;28;20137;-74
2023/04/24 10:49:06;;;;;;;13.55;6.60;;;9.20;99.90;;;;;;5027766;28;20130;-74
2023/04/24 10:51:46;;;;;;;15.00;7.05;;;9.40;99.90;;;;;;5030162;28;20045;-74
2023/04/24 10:54:45;;;;;;;11.13;5.60;;;9.80;99.90;;;;;;5030114;28;20045;-74
2023/04/24 10:57:22;;;;;;;14.50;5.63;;;10.10;99.90;;;;;;5018290;28;20095;-74
2023/04/24 11:00:09;;;;;;;11.82;5.50;;;10.30;99.90;;;;;;5029348;28;20048;-74
2023/04/24 11:02:40;;;;;;;12.13;3.83;;;10.50;99.90;;;;;;5023092;28;20060;-74
2023/04/24 11:05:06;;;;;;;10.23;3.95;;;10.60;99.90;;;;;;5028999;28;20045;-74
2023/04/24 11:08:10;;;;;;;10.95;4.10;;;10.60;99.90;;;;;;4994185;28;20057;-74
2023/04/24 11:10:40;;;;;;;10.82;4.20;;;10.50;99.90;;;;;;5017767;28;20046;-74
2023/04/24 11:13:07;;;;;;;9.90;4.30;;;10.30;99.90;;;;;;5029038;28;20076;-74
2023/04/24 11:15:32;;;;;;;10.52;3.85;;;10.20;99.90;;;;;;5018016;28;20114;-74
2023/04/24 11:17:58;;;;;;;9.07;3.70;;;10.20;99.90;;;;;;5010380;28;20156;-74
2023/04/24 11:20:26;;;;;;;7.22;3.00;;;10.20;99.90;;;;;;5022149;28;20046;-74
2023/04/24 11:22:57;;;;;;;5.82;2.80;;;10.20;99.90;;;;;;5027574;28;20038;-74
2023/04/24 11:25:24;;;;;;;7.68;3.33;;;10.10;99.90;;;;;;5027052;28;20450;-74
2023/04/24 11:28:02;;;;;;;8.73;3.53;;;10.10;99.90;;;;;;5010544;28;20393;-74
2023/04/24 11:30:30;;;;;;;7.35;3.42;;;10.00;99.90;;;;;;5010092;28;20050;-74
2023/04/24 11:33:05;;;;;;;8.05;3.08;;;10.00;99.90;;;;;;4993870;28;20398;-74
2023/04/24 11:35:38;;;;;;;10.55;3.63;;;10.10;99.90;;;;;;5005642;28;20465;-74
2023/04/24 11:38:05;;;;;;;7.35;3.15;;;10.10;99.90;;;;;;5030018;28;20120;-74
2023/04/24 11:40:30;;;;;;;10.50;3.40;;;10.00;99.90;;;;;;5030958;28;20269;-74
2023/04/24 11:42:59;;;;;;;9.93;3.78;;;10.00;99.90;;;;;;5032254;28;20073;-74
2023/04/24 11:45:27;;;;;;;9.00;3.17;;;9.90;99.90;;;;;;5022024;28;20042;-74
2023/04/24 11:47:52;;;;;;;8.85;3.65;;;9.70;99.90;;;;;;4997433;28;20046;-74
2023/04/24 11:50:21;;;;;;;9.15;3.78;;;9.50;99.90;;;;;;5013761;28;20141;-74
2023/04/24 11:52:48;;;;;;;13.95;4.28;;;9.40;99.90;;;;;;5021161;28;20033;-74
2023/04/24 11:55:14;;;;;;;12.55;4.28;;;9.40;99.90;;;;;;5023465;28;20038;-74
2023/04/24 11:57:44;;;;;;;7.68;2.80;;;9.50;99.90;;;;;;5033147;28;20520;-74
2023/04/24 12:00:20;;;;;;;5.72;2.35;;;9.70;99.90;;;;;;5016162;28;20069;-74
2023/04/24 12:02:46;;;;;;;5.70;2.13;;;9.70;99.90;;;;;;5013116;28;20045;-74
2023/04/24 12:05:31;;;;;;;4.40;2.28;;;9.70;99.90;;;;;;5013096;28;20087;-74
2023/04/24 12:07:57;;;;;;;6.22;2.50;;;9.60;99.90;;;;;;5014891;28;20100;-74
2023/04/24 12:10:26;;;;;;;5.97;3.03;;;9.60;99.90;;;;;;4997595;28;20048;-74
2023/04/24 12:12:52;;;;;;;5.20;2.38;;;9.60;99.90;;;;;;5013126;28;20410;-74
2023/04/24 12:15:21;;;;;;;8.20;2.60;;;9.80;99.90;;;;;;5018235;28;20036;-74
2023/04/24 12:17:47;;;;;;;6.25;2.53;;;10.00;99.90;;;;;;5032075;28;20076;-74
2023/04/24 12:20:14;;;;;;;4.45;2.53;;;10.50;99.90;;;;;;5023156;28;20486;-74
2023/04/24 12:22:45;;;;;;;6.43;1.92;;;10.90;99.90;;;;;;5012691;28;20045;-74
2023/04/24 12:25:11;;;;;;;5.72;1.88;;;11.10;99.90;;;;;;4996879;28;20049;-74
2023/04/24 12:27:37;;;;;;;4.85;1.75;;;11.00;99.90;;;;;;4996589;28;20449;-74
2023/04/24 12:30:05;;;;;;;4.50;1.63;;;10.80;99.90;;;;;;5023091;28;20029;-74
2023/04/24 12:32:31;;;;;;;4.22;1.50;;;10.40;99.90;;;;;;5024724;28;20455;-74
2023/04/24 12:34:58;;;;;;;5.93;1.75;;;10.10;99.90;;;;;;5031602;28;20546;-74
2023/04/24 12:37:33;;;;;;;5.68;1.92;;;10.00;99.90;;;;;;5021604;28;20034;-74
2023/04/24 12:40:05;;;;;;;5.90;2.60;;;9.80;99.90;;;;;;4996662;28;20459;-74
2023/04/24 12:42:31;;;;;;;7.53;2.72;;;9.70;99.90;;;;;;5004101;28;20044;-74